createdAt,value
2022-10-17T00:01:04.082Z,101249.38
2022-10-17T00:06:07.125Z,101257.81
2022-10-17T00:11:12.846Z,101261.47
2022-10-17T00:16:14.549Z,101263.72
2022-10-17T00:21:19.036Z,101269.22
2022-10-17T00:26:20.991Z,101273.78
2022-10-17T00:31:23.391Z,101280.13
2022-10-17T00:36:25.533Z,101280.63
2022-10-17T00:41:28.598Z,101289.59
2022-10-17T00:46:31.591Z,101277.66
2022-10-17T00:51:35.480Z,101285.72
2022-10-17T00:56:36.939Z,101285.91
2022-10-17T01:01:39.804Z,101275.38
2022-10-17T01:06:41.133Z,101277.41
2022-10-17T01:12:11.810Z,101274.28
2022-10-17T01:17:32.844Z,101286.84
2022-10-17T01:22:41.239Z,101283.59
2022-10-17T01:28:00.397Z,101274.47
2022-10-17T01:33:07.603Z,101294.81
2022-10-17T01:38:18.247Z,101283.91
2022-10-17T01:43:34.824Z,101278.47
2022-10-17T01:48:37.446Z,101279.47
2022-10-17T01:53:42.693Z,101278.53
2022-10-17T01:58:47.823Z,101279.31
2022-10-17T02:03:50.814Z,101277.09
2022-10-17T02:08:52.155Z,101273.25
2022-10-17T02:13:53.471Z,101270.88
2022-10-17T02:18:54.773Z,101276.13
2022-10-17T02:24:05.068Z,101279.34
2022-10-17T02:29:14.029Z,101278.50
2022-10-17T02:34:21.552Z,101274.31
2022-10-17T02:39:25.099Z,101283.25
2022-10-17T02:44:27.818Z,101282.25
2022-10-17T02:49:31.559Z,101288.94
2022-10-17T02:54:38.774Z,101289.16
2022-10-17T02:59:41.799Z,101288.41
2022-10-17T03:04:44.064Z,101282.75
2022-10-17T03:09:45.381Z,101281.53
2022-10-17T03:14:46.687Z,101288.19
2022-10-17T03:19:47.989Z,101279.44
2022-10-17T03:24:49.316Z,101287.75
2022-10-17T03:29:50.614Z,101294.66
2022-10-17T03:34:51.919Z,101287.63
2022-10-17T03:39:53.215Z,101285.25
2022-10-17T03:44:54.512Z,101280.41
2022-10-17T03:49:55.871Z,101286.09
2022-10-17T03:54:57.182Z,101295.84
2022-10-17T03:59:58.547Z,101309.63
2022-10-17T04:04:59.850Z,101312.22
2022-10-17T04:10:01.170Z,101311.66
2022-10-17T04:15:02.600Z,101311.88
2022-10-17T04:20:04.113Z,101315.72
2022-10-17T04:25:05.628Z,101312.09
2022-10-17T04:30:07.266Z,101296.50
2022-10-17T04:35:08.906Z,101297.34
2022-10-17T04:40:10.410Z,101315.94
2022-10-17T04:45:12.886Z,101324.63
2022-10-17T04:50:14.194Z,101303.16
2022-10-17T04:55:15.495Z,101327.44
2022-10-17T05:00:16.882Z,101313.50
2022-10-17T05:05:18.201Z,101335.16
2022-10-17T05:10:19.698Z,101328.69
2022-10-17T05:15:20.993Z,101315.94
2022-10-17T05:20:22.292Z,101322.22
2022-10-17T05:25:24.508Z,101325.44
2022-10-17T05:30:25.859Z,101320.38
2022-10-17T05:35:27.179Z,101320.97
2022-10-17T05:40:28.507Z,101330.69
2022-10-17T05:45:29.848Z,101321.00
2022-10-17T05:50:31.207Z,101321.41
2022-10-17T05:55:32.522Z,101332.13
2022-10-17T06:00:33.918Z,101335.53
2022-10-17T06:05:35.387Z,101330.91
2022-10-17T06:10:36.686Z,101331.31
2022-10-17T06:15:37.990Z,101328.03
2022-10-17T06:20:43.856Z,101340.41
2022-10-17T06:25:47.373Z,101348.44
2022-10-17T06:30:48.688Z,101364.94
2022-10-17T06:35:53.830Z,101374.16
2022-10-17T06:40:57.748Z,101361.72
2022-10-17T06:45:59.069Z,101373.50
2022-10-17T06:51:00.832Z,101383.47
2022-10-17T06:56:03.743Z,101373.09
2022-10-17T07:01:06.794Z,101396.13
2022-10-17T07:06:08.275Z,101383.56
2022-10-17T07:11:10.428Z,101402.44
2022-10-17T07:16:11.836Z,101391.38
2022-10-17T07:21:13.191Z,101413.38
2022-10-17T07:26:15.705Z,101401.63
2022-10-17T07:31:18.406Z,101406.94
2022-10-17T07:36:19.766Z,101412.03
2022-10-17T07:41:21.942Z,101415.97
2022-10-17T07:46:23.434Z,101424.03
2022-10-17T07:51:24.834Z,101427.28
2022-10-17T07:56:26.239Z,101415.78
2022-10-17T08:01:28.224Z,101419.25
2022-10-17T08:06:29.581Z,101421.09
2022-10-17T08:11:31.205Z,101419.00
2022-10-17T08:16:32.517Z,101422.00
2022-10-17T08:21:33.836Z,101403.72
2022-10-17T08:26:38.009Z,101419.44
2022-10-17T08:31:45.267Z,101415.72
2022-10-17T08:36:49.478Z,101424.44
2022-10-17T08:42:09.278Z,101413.22
2022-10-17T08:47:12.783Z,101431.34
2022-10-17T08:52:32.597Z,101450.00
2022-10-17T08:57:34.139Z,101442.16
2022-10-17T09:02:53.701Z,101431.78
2022-10-17T09:07:58.291Z,101442.19
2022-10-17T09:13:21.137Z,101447.34
2022-10-17T09:18:31.741Z,101451.94
2022-10-17T09:24:03.974Z,101443.44
2022-10-17T09:29:20.159Z,101431.06
2022-10-17T09:34:25.268Z,101445.75
2022-10-17T09:39:31.953Z,101434.97
2022-10-17T09:44:34.579Z,101465.91
2022-10-17T09:49:38.232Z,101476.16
2022-10-17T09:54:45.002Z,101490.97
2022-10-17T09:59:48.091Z,101485.09
2022-10-17T10:05:08.522Z,101485.91
2022-10-17T10:10:27.865Z,101479.78
2022-10-17T10:15:32.435Z,101475.47
2022-10-17T10:20:35.172Z,101488.53
2022-10-17T10:25:36.793Z,101501.00
2022-10-17T10:30:39.973Z,101505.66
2022-10-17T10:35:41.575Z,101502.16
2022-10-17T10:40:48.075Z,101505.47
2022-10-17T10:45:49.645Z,101502.59
2022-10-17T10:50:54.133Z,101516.09
2022-10-17T10:55:58.886Z,101528.00
2022-10-17T11:01:02.869Z,101529.09
2022-10-17T11:06:06.542Z,101536.78
2022-10-17T11:11:18.244Z,101539.97
2022-10-17T11:16:28.821Z,101546.22
2022-10-17T11:21:48.817Z,101560.84
2022-10-17T11:26:59.205Z,101566.06
2022-10-17T11:32:03.355Z,101567.84
2022-10-17T11:37:07.979Z,101559.09
2022-10-17T11:42:15.006Z,101546.81
2022-10-17T11:47:16.311Z,101544.34
2022-10-17T11:58:19.491Z,101549.69
2022-10-17T12:03:39.948Z,101545.19
2022-10-17T12:09:00.249Z,101552.34
2022-10-17T12:14:05.749Z,101555.16
2022-10-17T12:19:07.531Z,101551.91
2022-10-17T12:24:20.293Z,101552.88
2022-10-17T12:29:28.645Z,101553.72
2022-10-17T12:34:29.978Z,101548.47
2022-10-17T12:39:31.291Z,101554.00
2022-10-17T12:44:34.980Z,101558.75
2022-10-17T12:49:45.696Z,101573.22
2022-10-17T12:55:07.141Z,101563.16
2022-10-17T13:00:16.147Z,101570.34
2022-10-17T13:05:27.003Z,101569.84
2022-10-17T13:10:29.618Z,101578.81
2022-10-17T13:15:31.126Z,101581.59
2022-10-17T13:20:32.598Z,101597.38
2022-10-17T13:25:37.625Z,101603.88
2022-10-17T13:30:45.724Z,101603.84
2022-10-17T13:36:00.056Z,101605.56
2022-10-17T13:41:30.130Z,101609.00
2022-10-17T13:46:37.897Z,101609.72
2022-10-17T13:51:42.922Z,101616.31
2022-10-17T13:56:44.752Z,101622.31
2022-10-17T14:01:49.679Z,101626.66
2022-10-17T14:06:52.222Z,101619.66
2022-10-17T14:12:13.018Z,101625.34
2022-10-17T14:17:15.120Z,101632.78
2022-10-17T14:22:22.317Z,101623.44
2022-10-17T14:27:30.006Z,101628.03
2022-10-17T14:32:36.104Z,101635.84
2022-10-17T14:37:40.550Z,101624.72
2022-10-17T14:42:41.975Z,101632.97
2022-10-17T14:47:44.272Z,101646.09
2022-10-17T14:52:58.872Z,101642.63
2022-10-17T14:58:00.654Z,101648.91
2022-10-17T15:03:02.033Z,101650.09
2022-10-17T15:08:03.418Z,101648.19
2022-10-17T15:13:26.687Z,101656.34
2022-10-17T15:18:26.078Z,101661.03
2022-10-17T15:23:27.372Z,101664.31
2022-10-17T15:28:28.714Z,101677.41
2022-10-17T15:33:30.097Z,101681.97
2022-10-17T15:38:31.447Z,101679.22
2022-10-17T15:43:32.765Z,101679.94
2022-10-17T15:48:34.144Z,101688.34
2022-10-17T15:53:35.871Z,101696.31
2022-10-17T15:58:38.410Z,101697.66
2022-10-17T16:03:39.876Z,101709.03
2022-10-17T16:08:41.183Z,101730.78
2022-10-17T16:13:53.286Z,101738.84
2022-10-17T16:18:54.764Z,101735.81
2022-10-17T16:23:56.519Z,101754.53
2022-10-17T16:28:58.321Z,101763.00
2022-10-17T16:34:00.395Z,101762.50
2022-10-17T16:39:01.942Z,101767.06
2022-10-17T16:44:05.297Z,101756.19
2022-10-17T16:49:07.125Z,101758.56
2022-10-17T16:54:08.538Z,101761.91
2022-10-17T16:59:11.106Z,101765.06
2022-10-17T17:04:12.474Z,101765.34
2022-10-17T17:09:14.116Z,101766.47
2022-10-17T17:14:15.445Z,101773.41
2022-10-17T17:19:20.367Z,101772.84
2022-10-17T17:24:21.685Z,101767.47
2022-10-17T17:29:23.649Z,101773.22
2022-10-17T17:34:24.964Z,101783.75
2022-10-17T17:39:26.262Z,101780.31
2022-10-17T17:44:27.626Z,101781.00
2022-10-17T17:49:28.943Z,101795.84
2022-10-17T17:54:30.327Z,101808.28
2022-10-17T17:59:31.618Z,101810.91
2022-10-17T18:04:33.030Z,101813.78
2022-10-17T18:09:34.339Z,101827.59
2022-10-17T18:14:35.649Z,101824.78
2022-10-17T18:19:37.040Z,101837.00
2022-10-17T18:24:38.346Z,101836.84
2022-10-17T18:29:39.674Z,101843.78
2022-10-17T18:34:41.137Z,101840.31
2022-10-17T18:39:42.478Z,101839.13
2022-10-17T18:44:43.864Z,101852.50
2022-10-17T18:49:45.254Z,101870.44
2022-10-17T19:01:03.526Z,101867.41
2022-10-17T19:06:07.429Z,101871.66
2022-10-17T19:11:09.828Z,101872.06
2022-10-17T19:16:15.239Z,101879.41
2022-10-17T19:21:21.542Z,101878.16
2022-10-17T19:26:23.838Z,101885.91
2022-10-17T19:31:27.295Z,101886.09
2022-10-17T19:36:32.519Z,101894.22
2022-10-17T19:41:36.364Z,101886.72
2022-10-17T19:46:38.040Z,101894.41
2022-10-17T19:51:39.676Z,101902.13
2022-10-17T19:56:43.345Z,101901.72
2022-10-17T20:01:44.849Z,101909.84
2022-10-17T20:06:46.245Z,101913.31
2022-10-17T20:11:49.025Z,101917.19
2022-10-17T20:16:51.921Z,101924.88
2022-10-17T20:21:53.312Z,101922.84
2022-10-17T20:26:54.635Z,101914.31
2022-10-17T20:31:57.609Z,101907.66
2022-10-17T20:36:58.934Z,101916.53
2022-10-17T20:42:00.238Z,101931.78
2022-10-17T20:47:02.694Z,101937.63
2022-10-17T20:52:04.385Z,101944.34
2022-10-17T20:57:05.808Z,101949.63
2022-10-17T21:02:07.385Z,101938.25
2022-10-17T21:07:08.703Z,101937.88
2022-10-17T21:12:10.074Z,101945.53
2022-10-17T21:17:11.401Z,101950.22
2022-10-17T21:22:12.719Z,101966.63
2022-10-17T21:27:15.640Z,101955.66
2022-10-17T21:32:31.872Z,101964.19
2022-10-17T21:37:38.306Z,101967.78
2022-10-17T21:42:39.647Z,101968.84
2022-10-17T21:47:41.765Z,101967.59
2022-10-17T21:52:46.907Z,101963.94
2022-10-17T21:57:48.324Z,101981.97
2022-10-17T22:02:49.702Z,101976.28
2022-10-17T22:07:51.016Z,101984.19
2022-10-17T22:12:52.341Z,101987.22
2022-10-17T22:17:53.643Z,101986.00
2022-10-17T22:22:55.041Z,101983.56
2022-10-17T22:27:56.408Z,101975.84
2022-10-17T22:32:57.715Z,101978.06
2022-10-17T22:37:59.021Z,101979.88
2022-10-17T22:43:00.360Z,101972.59
2022-10-17T22:48:01.669Z,101966.88
2022-10-17T22:53:03.002Z,101960.81
2022-10-17T22:58:04.348Z,101951.66
2022-10-17T23:03:05.647Z,101954.28
2022-10-17T23:08:06.961Z,101954.09
2022-10-17T23:13:08.272Z,101942.75
2022-10-17T23:18:10.116Z,101951.88
2022-10-17T23:23:11.664Z,101963.00
2022-10-17T23:28:13.274Z,101958.53
2022-10-17T23:33:14.701Z,101954.69
2022-10-17T23:38:16.025Z,101964.22
2022-10-17T23:43:17.326Z,101956.31
2022-10-17T23:48:18.706Z,101957.09
2022-10-17T23:53:20.038Z,101945.94
2022-10-17T23:58:21.446Z,101950.81
